Terminal Aerodrome Forecast
Issued by NWS

Current Version | Previous Version | Text Only | Print | Product List | Glossary On
Versions: 1 2 3 4 5 6 7 8 9 10 11 12 13 14 15 16 17 18 19 20 21
000
FTUS46 KSGX 022320
TAFSNA
TAF
KSNA 022320Z 0300/0324 24007KT P6SM FEW060
     FM030100 VRB04KT P6SM SCT015
     FM030800 VRB04KT P6SM OVC015
     FM031700 VRB04KT P6SM SCT015
     FM031900 24009KT P6SM FEW015=

USA.gov is the U.S. government's official web portal to all federal, state and local government web resources and services.